Time;durP1;ratioP1;P1;durP2;ratioP2;P2;SDS_P1;SDS_P2;PMS_P1;PMS_P2;Temp;Humidity;BMP_temperature;BMP_pressure;BME280_temperature;BME280_humidity;BME280_pressure;Samples;Min_cycle;Max_cycle;Signal;HPM_P1;HPM_P2
2020/12/21 00:01:52;;;;;;;21.23;19.33;;;7.00;99.90;;;;;;5085773;28;20638;-87
2020/12/21 00:04:19;;;;;;;22.70;20.60;;;7.00;99.90;;;;;;5090848;28;20996;-86
2020/12/21 00:06:53;;;;;;;21.63;19.47;;;7.00;99.90;;;;;;5084469;28;20644;-86
2020/12/21 00:09:20;;;;;;;21.37;19.53;;;7.00;99.90;;;;;;5081856;28;20628;-87
2020/12/21 00:11:47;;;;;;;20.83;19.03;;;6.90;99.90;;;;;;5082527;28;20665;-86
2020/12/21 00:14:14;;;;;;;20.87;18.87;;;6.90;99.90;;;;;;5081769;28;20632;-86
2020/12/21 00:16:44;;;;;;;19.93;18.30;;;7.10;99.90;;;;;;5084792;28;20606;-85
2020/12/21 00:19:12;;;;;;;19.30;17.60;;;7.10;99.90;;;;;;5085268;28;20667;-86
2020/12/21 00:21:40;;;;;;;20.23;18.43;;;7.00;99.90;;;;;;5076587;28;21204;-85
2020/12/21 00:24:07;;;;;;;21.40;19.13;;;7.00;99.90;;;;;;5083142;28;21030;-86
2020/12/21 00:26:34;;;;;;;19.87;18.17;;;7.00;99.90;;;;;;5088729;28;20635;-85
2020/12/21 00:29:01;;;;;;;19.40;17.50;;;7.00;99.90;;;;;;5088373;28;20629;-86
2020/12/21 00:31:29;;;;;;;19.97;18.17;;;6.90;99.90;;;;;;5086745;28;20639;-86
2020/12/21 00:33:57;;;;;;;18.10;16.40;;;6.90;99.90;;;;;;5093432;28;21089;-86
2020/12/21 00:36:24;;;;;;;20.27;18.50;;;6.90;99.90;;;;;;5083386;28;21150;-85
2020/12/21 00:38:52;;;;;;;18.87;17.27;;;7.00;99.90;;;;;;5084943;28;21221;-86
2020/12/21 00:41:20;;;;;;;20.10;18.20;;;7.00;99.90;;;;;;5080569;28;20647;-85
2020/12/21 00:43:50;;;;;;;18.67;17.07;;;7.10;99.90;;;;;;5092450;28;20631;-86
2020/12/21 00:46:19;;;;;;;19.50;17.63;;;7.00;99.90;;;;;;5080632;28;20631;-86
2020/12/21 00:48:46;;;;;;;19.87;18.10;;;6.90;99.90;;;;;;5088906;28;20670;-87
2020/12/21 00:51:13;;;;;;;18.93;17.33;;;6.90;99.90;;;;;;5089382;28;20647;-86
2020/12/21 00:53:40;;;;;;;20.37;18.60;;;6.90;99.90;;;;;;5093870;28;20641;-86
2020/12/21 00:56:07;;;;;;;19.57;17.87;;;6.80;99.90;;;;;;5088603;28;20634;-87
2020/12/21 00:58:35;;;;;;;19.83;18.07;;;6.80;99.90;;;;;;5082306;28;20623;-87
2020/12/21 01:01:04;;;;;;;19.63;17.93;;;6.80;99.90;;;;;;5087393;28;20663;-86
2020/12/21 01:03:31;;;;;;;21.00;19.27;;;6.70;99.90;;;;;;5088037;28;20641;-86
2020/12/21 01:05:58;;;;;;;20.77;18.83;;;6.80;99.90;;;;;;5086303;28;20632;-86
2020/12/21 01:08:25;;;;;;;19.70;18.07;;;6.70;99.90;;;;;;5088605;28;20634;-86
2020/12/21 01:10:51;;;;;;;20.27;18.57;;;6.60;99.90;;;;;;5091371;28;20656;-86
2020/12/21 01:13:18;;;;;;;19.73;18.07;;;6.60;99.90;;;;;;5080681;28;20617;-87
2020/12/21 01:15:44;;;;;;;19.87;18.27;;;6.60;99.90;;;;;;5075321;28;21405;-87
2020/12/21 01:18:11;;;;;;;20.30;18.67;;;6.50;99.90;;;;;;5080082;28;21006;-87
2020/12/21 01:20:40;;;;;;;18.90;16.90;;;6.50;99.90;;;;;;5088099;28;20676;-86
2020/12/21 01:23:06;;;;;;;23.10;17.80;;;6.40;99.90;;;;;;5087376;28;20634;-86
2020/12/21 01:25:32;;;;;;;19.93;18.03;;;6.50;99.90;;;;;;5093637;28;20635;-86
2020/12/21 01:27:59;;;;;;;19.53;17.80;;;6.50;99.90;;;;;;5091735;28;20698;-86
2020/12/21 01:30:25;;;;;;;19.63;18.00;;;6.50;99.90;;;;;;5096423;28;20660;-86
2020/12/21 01:32:51;;;;;;;19.20;17.57;;;6.50;99.90;;;;;;5085273;28;21198;-87
2020/12/21 01:35:18;;;;;;;19.97;18.27;;;6.50;99.90;;;;;;5094599;28;20678;-86
2020/12/21 01:37:45;;;;;;;19.27;17.73;;;6.50;99.90;;;;;;5090949;28;20628;-87
2020/12/21 01:40:11;;;;;;;18.60;17.10;;;6.50;99.90;;;;;;5091322;28;20670;-86
2020/12/21 01:42:38;;;;;;;19.40;17.80;;;6.40;99.90;;;;;;5099202;28;20635;-86
2020/12/21 01:45:05;;;;;;;17.70;16.20;;;6.40;99.90;;;;;;5089362;28;21767;-86
2020/12/21 01:47:32;;;;;;;19.47;17.67;;;6.30;99.90;;;;;;5089245;28;20624;-86
2020/12/21 01:50:00;;;;;;;19.97;18.20;;;6.40;99.90;;;;;;5089785;28;20655;-86
2020/12/21 01:52:27;;;;;;;19.37;17.90;;;6.40;99.90;;;;;;5081065;28;20671;-87
2020/12/21 01:54:55;;;;;;;20.70;18.83;;;6.40;99.90;;;;;;5082832;27;21191;-86
2020/12/21 01:57:22;;;;;;;18.03;16.50;;;6.30;99.90;;;;;;5089847;28;20613;-86
2020/12/21 01:59:49;;;;;;;19.90;18.23;;;6.20;99.90;;;;;;5086253;28;20670;-87
2020/12/21 02:02:15;;;;;;;20.80;19.00;;;6.10;99.90;;;;;;5095164;28;20624;-87
2020/12/21 02:04:42;;;;;;;20.10;18.10;;;6.10;99.90;;;;;;5107092;28;20613;-87
2020/12/21 02:07:08;;;;;;;19.77;18.07;;;6.00;99.90;;;;;;5107085;28;21078;-86
2020/12/21 02:09:34;;;;;;;19.93;18.13;;;5.90;99.90;;;;;;5108995;28;20644;-86
2020/12/21 02:12:02;;;;;;;19.20;17.60;;;5.90;99.90;;;;;;5095652;27;21090;-86
2020/12/21 02:14:29;;;;;;;19.83;18.27;;;5.90;99.90;;;;;;5100530;28;20678;-86
2020/12/21 02:16:55;;;;;;;19.57;17.97;;;5.80;99.90;;;;;;5095250;28;20624;-86
2020/12/21 02:19:21;;;;;;;19.17;17.57;;;5.80;99.90;;;;;;5092874;28;20658;-85
2020/12/21 02:21:48;;;;;;;21.80;20.03;;;5.60;99.90;;;;;;5098531;28;20666;-86
2020/12/21 02:24:15;;;;;;;20.43;18.73;;;5.50;99.90;;;;;;5099107;28;20980;-86
2020/12/21 02:26:41;;;;;;;21.37;19.57;;;5.40;99.90;;;;;;5101343;28;20633;-87
2020/12/21 02:29:07;;;;;;;21.97;20.10;;;5.40;99.90;;;;;;5096409;28;20628;-85
2020/12/21 02:31:34;;;;;;;20.47;18.87;;;5.30;99.90;;;;;;5088805;28;20726;-85
2020/12/21 02:34:00;;;;;;;18.93;17.43;;;5.20;99.90;;;;;;5093767;28;20612;-87
2020/12/21 02:36:28;;;;;;;19.23;17.53;;;5.40;99.90;;;;;;5094957;28;20651;-85
2020/12/21 02:38:55;;;;;;;21.60;19.73;;;5.10;99.90;;;;;;5096135;28;20668;-85
2020/12/21 02:41:22;;;;;;;20.10;18.43;;;5.10;99.90;;;;;;5096722;28;20978;-85
2020/12/21 02:43:48;;;;;;;20.77;18.97;;;5.00;99.90;;;;;;5102260;28;20620;-86
2020/12/21 02:46:16;;;;;;;19.90;18.13;;;5.20;99.90;;;;;;5098159;28;21132;-85
2020/12/21 02:48:47;;;;;;;20.17;18.57;;;5.00;99.90;;;;;;5102237;28;20631;-85
2020/12/21 02:51:15;;;;;;;18.90;17.30;;;4.90;99.90;;;;;;5101289;28;20656;-85
2020/12/21 02:53:41;;;;;;;18.43;16.87;;;4.80;99.90;;;;;;5099075;28;20704;-87
2020/12/21 02:56:09;;;;;;;18.47;16.77;;;4.80;99.90;;;;;;5092829;28;20628;-87
2020/12/21 02:58:35;;;;;;;20.40;18.53;;;4.90;99.90;;;;;;5088290;28;21002;-86
2020/12/21 03:01:01;;;;;;;16.50;15.00;;;4.80;99.90;;;;;;5095645;28;20714;-86
2020/12/21 03:03:29;;;;;;;16.17;14.83;;;4.70;99.90;;;;;;5082831;28;20633;-87
2020/12/21 03:05:56;;;;;;;15.73;14.43;;;4.60;99.90;;;;;;5082701;28;20635;-86
2020/12/21 03:08:22;;;;;;;18.37;16.80;;;4.60;99.90;;;;;;5083044;28;20612;-86
2020/12/21 03:10:49;;;;;;;17.10;15.57;;;4.50;99.90;;;;;;5087260;28;20654;-86
2020/12/21 03:13:16;;;;;;;18.27;16.47;;;4.50;99.90;;;;;;5089625;28;21108;-86
2020/12/21 03:15:42;;;;;;;16.73;15.33;;;4.60;99.90;;;;;;5084360;28;20630;-86
2020/12/21 03:18:09;;;;;;;18.37;16.87;;;4.60;99.90;;;;;;5089076;28;20631;-85
2020/12/21 03:20:35;;;;;;;17.47;15.97;;;4.60;99.90;;;;;;5087313;28;21129;-85
2020/12/21 03:23:03;;;;;;;18.40;16.80;;;4.50;99.90;;;;;;5081282;28;20697;-86
2020/12/21 03:25:29;;;;;;;21.17;19.13;;;4.60;99.90;;;;;;5091364;28;20648;-85
2020/12/21 03:27:55;;;;;;;42.17;20.73;;;4.60;99.90;;;;;;5087980;28;20748;-85
2020/12/21 03:30:23;;;;;;;19.87;17.87;;;4.60;99.90;;;;;;5091775;28;20662;-85
2020/12/21 03:32:49;;;;;;;49.53;22.00;;;4.50;99.90;;;;;;5084900;28;20651;-87
2020/12/21 03:35:17;;;;;;;28.20;20.17;;;4.50;99.90;;;;;;5085495;28;20628;-87
2020/12/21 03:37:43;;;;;;;38.40;22.30;;;4.50;99.90;;;;;;5095732;28;21010;-87
2020/12/21 03:40:09;;;;;;;21.97;19.40;;;4.50;99.90;;;;;;5084139;28;21102;-87
2020/12/21 03:42:36;;;;;;;40.67;24.63;;;4.50;99.90;;;;;;5078003;28;20631;-87
2020/12/21 03:45:04;;;;;;;23.67;21.20;;;4.50;99.90;;;;;;5087391;28;20643;-86
2020/12/21 03:47:31;;;;;;;26.90;22.10;;;4.40;99.90;;;;;;5090559;28;20618;-86
2020/12/21 03:49:57;;;;;;;26.20;23.60;;;4.30;99.90;;;;;;5084685;28;20654;-86
2020/12/21 03:52:24;;;;;;;28.53;22.83;;;4.30;99.90;;;;;;5083797;28;20586;-86
2020/12/21 03:54:50;;;;;;;25.43;21.00;;;4.30;99.90;;;;;;5080075;28;20623;-86
2020/12/21 03:57:17;;;;;;;23.73;21.47;;;4.30;99.90;;;;;;5079736;28;20605;-87
2020/12/21 03:59:43;;;;;;;23.97;21.70;;;4.10;99.90;;;;;;5080727;28;20689;-85
2020/12/21 04:02:11;;;;;;;22.57;20.53;;;4.20;99.90;;;;;;5080510;28;20628;-86
2020/12/21 04:04:38;;;;;;;22.67;20.57;;;4.20;99.90;;;;;;5088644;28;20633;-86
2020/12/21 04:07:06;;;;;;;21.63;19.80;;;4.10;99.90;;;;;;5078951;28;20630;-86
2020/12/21 04:09:35;;;;;;;22.10;20.30;;;4.00;99.90;;;;;;5086757;28;20649;-87
2020/12/21 04:12:01;;;;;;;22.67;20.67;;;4.00;99.90;;;;;;5086789;28;20643;-86
2020/12/21 04:14:28;;;;;;;22.50;20.60;;;4.00;99.90;;;;;;5085291;28;21059;-86
2020/12/21 04:16:54;;;;;;;22.40;20.33;;;4.10;99.90;;;;;;5087362;28;21003;-86
2020/12/21 04:19:21;;;;;;;22.87;20.80;;;4.10;99.90;;;;;;5083277;28;20674;-86
2020/12/21 04:21:49;;;;;;;21.97;19.87;;;4.00;99.90;;;;;;5091495;28;20626;-87
2020/12/21 04:24:17;;;;;;;24.60;22.57;;;4.00;99.90;;;;;;5087072;28;21160;-87
2020/12/21 04:26:44;;;;;;;21.00;18.83;;;4.00;99.90;;;;;;5089621;28;20631;-87
2020/12/21 04:29:10;;;;;;;21.57;19.70;;;4.00;99.90;;;;;;5085519;28;20607;-85
2020/12/21 04:31:36;;;;;;;22.00;20.20;;;4.00;99.90;;;;;;5087894;28;20677;-86
2020/12/21 04:34:03;;;;;;;21.80;19.90;;;4.00;99.90;;;;;;5086060;28;20642;-86
2020/12/21 04:36:30;;;;;;;22.17;19.90;;;4.10;99.90;;;;;;5088437;28;20687;-86
2020/12/21 04:38:57;;;;;;;20.00;18.23;;;4.00;99.90;;;;;;5085716;28;20656;-87
2020/12/21 04:41:24;;;;;;;21.73;19.63;;;3.90;99.90;;;;;;5088209;28;20634;-86
2020/12/21 04:43:51;;;;;;;20.73;18.73;;;4.00;99.90;;;;;;5088683;28;20649;-87
2020/12/21 04:46:18;;;;;;;20.50;18.70;;;4.00;99.90;;;;;;5084730;28;20643;-86
2020/12/21 04:48:46;;;;;;;20.07;18.17;;;4.00;99.90;;;;;;5091914;28;20640;-86
2020/12/21 04:51:17;;;;;;;20.23;18.50;;;4.00;99.90;;;;;;5090014;28;20631;-87
2020/12/21 04:53:44;;;;;;;18.63;17.10;;;4.20;99.90;;;;;;5085568;28;20654;-87
2020/12/21 04:56:11;;;;;;;16.93;15.60;;;4.10;99.90;;;;;;5085907;28;20620;-86
2020/12/21 04:58:43;;;;;;;18.40;16.70;;;4.20;99.90;;;;;;5079866;28;20637;-86
2020/12/21 05:01:10;;;;;;;19.37;17.57;;;4.30;99.90;;;;;;5085482;28;20617;-86
2020/12/21 05:03:36;;;;;;;20.27;18.67;;;4.40;99.90;;;;;;5091471;28;20711;-88
2020/12/21 05:06:06;;;;;;;22.17;20.47;;;4.50;99.90;;;;;;5085374;28;20636;-86
2020/12/21 05:08:34;;;;;;;25.23;22.70;;;4.50;99.90;;;;;;5091502;28;20627;-86
2020/12/21 05:11:03;;;;;;;36.73;20.20;;;4.70;99.90;;;;;;5093820;28;21073;-87
2020/12/21 05:13:32;;;;;;;28.97;22.00;;;4.70;99.90;;;;;;5089153;28;20711;-86
2020/12/21 05:15:59;;;;;;;21.90;20.10;;;4.80;99.90;;;;;;5087086;28;20635;-87
2020/12/21 05:18:26;;;;;;;44.17;23.03;;;4.90;99.90;;;;;;5091414;28;20624;-87
2020/12/21 05:20:57;;;;;;;21.87;19.77;;;5.00;99.90;;;;;;5090918;28;20663;-85
2020/12/21 05:23:26;;;;;;;22.20;20.20;;;4.90;99.90;;;;;;5082751;28;20657;-86
2020/12/21 05:26:01;;;;;;;23.67;21.33;;;4.90;99.90;;;;;;5097912;28;20625;-86
2020/12/21 05:28:29;;;;;;;22.60;20.60;;;4.90;99.90;;;;;;5105142;28;21358;-86
2020/12/21 05:30:58;;;;;;;23.03;20.10;;;4.90;99.90;;;;;;5093462;28;20627;-86
2020/12/21 05:33:25;;;;;;;21.30;19.30;;;4.90;99.90;;;;;;5091653;28;20666;-86
2020/12/21 05:35:51;;;;;;;21.77;19.87;;;5.00;99.90;;;;;;5095745;28;20641;-88
2020/12/21 05:38:25;;;;;;;37.67;24.93;;;5.00;99.90;;;;;;5086617;28;20628;-87
2020/12/21 05:40:53;;;;;;;26.63;23.73;;;4.90;99.90;;;;;;5094572;28;20678;-88
2020/12/21 05:43:27;;;;;;;34.00;26.10;;;4.80;99.90;;;;;;5095019;28;20655;-87
2020/12/21 05:46:08;;;;;;;27.77;24.97;;;4.80;99.90;;;;;;5085268;28;20640;-88
2020/12/21 05:48:38;;;;;;;28.50;21.63;;;4.90;99.90;;;;;;5085600;28;20627;-86
2020/12/21 05:51:06;;;;;;;24.47;22.00;;;4.90;99.90;;;;;;5090265;28;20625;-87
2020/12/21 05:53:42;;;;;;;23.67;21.47;;;5.00;99.90;;;;;;5098288;28;21233;-88
2020/12/21 05:56:10;;;;;;;21.90;19.80;;;5.00;99.90;;;;;;5086890;28;20645;-88
2020/12/21 05:58:39;;;;;;;23.70;21.23;;;5.10;99.90;;;;;;5083156;28;20629;-89
2020/12/21 06:01:07;;;;;;;20.30;18.50;;;5.10;99.90;;;;;;5091956;28;21012;-88
2020/12/21 06:03:46;;;;;;;21.77;19.90;;;5.10;99.90;;;;;;5097196;28;21579;-88
2020/12/21 06:06:17;;;;;;;24.83;19.47;;;5.00;99.90;;;;;;5088897;28;20756;-88
2020/12/21 06:08:45;;;;;;;23.70;21.47;;;5.00;99.90;;;;;;5089091;28;20643;-89
2020/12/21 06:11:22;;;;;;;26.60;20.07;;;4.90;99.90;;;;;;5084758;28;20621;-87
2020/12/21 06:13:56;;;;;;;22.20;19.77;;;4.90;99.90;;;;;;5090881;28;20696;-88
2020/12/21 06:16:24;;;;;;;23.00;18.90;;;4.90;99.90;;;;;;5092110;28;20624;-88
2020/12/21 06:19:07;;;;;;;24.37;17.83;;;4.90;99.90;;;;;;5084863;28;20625;-86
2020/12/21 06:21:35;;;;;;;23.97;18.70;;;5.00;99.90;;;;;;5087273;28;21236;-88
2020/12/21 06:24:03;;;;;;;22.90;20.60;;;5.00;99.90;;;;;;5089438;28;20645;-87
2020/12/21 06:26:36;;;;;;;22.93;20.53;;;5.10;99.90;;;;;;5087564;28;20614;-87
2020/12/21 06:29:07;;;;;;;23.80;17.53;;;5.00;99.90;;;;;;5080437;28;20629;-87
2020/12/21 06:31:41;;;;;;;73.40;21.50;;;5.10;99.90;;;;;;5087499;28;20740;-87
2020/12/21 06:34:09;;;;;;;20.90;19.00;;;5.10;99.90;;;;;;5080183;28;21247;-87
2020/12/21 06:36:36;;;;;;;22.20;20.10;;;5.00;99.90;;;;;;5086269;28;20631;-87
2020/12/21 06:39:04;;;;;;;29.93;20.37;;;5.00;99.90;;;;;;5084529;28;20626;-88
2020/12/21 06:41:31;;;;;;;20.67;18.93;;;5.00;99.90;;;;;;5080434;28;20624;-88
2020/12/21 06:43:59;;;;;;;18.90;17.30;;;5.00;99.90;;;;;;5085726;28;20686;-87
2020/12/21 06:46:26;;;;;;;20.37;18.67;;;5.00;99.90;;;;;;5085230;28;20629;-87
2020/12/21 06:49:11;;;;;;;19.63;17.73;;;5.00;99.90;;;;;;5088251;28;21008;-87
2020/12/21 06:51:41;;;;;;;19.73;18.10;;;5.00;99.90;;;;;;5092184;28;20669;-88
2020/12/21 06:54:09;;;;;;;18.23;16.63;;;4.80;99.90;;;;;;5084198;28;20990;-88
2020/12/21 06:56:36;;;;;;;16.10;14.60;;;4.70;99.90;;;;;;5093460;28;20660;-88
2020/12/21 06:59:02;;;;;;;15.50;14.20;;;4.60;99.90;;;;;;5082657;28;20985;-88
2020/12/21 07:01:29;;;;;;;18.63;16.93;;;4.50;99.90;;;;;;5081953;28;20678;-87
2020/12/21 07:03:56;;;;;;;18.03;16.37;;;4.40;99.90;;;;;;5088558;28;21310;-87
2020/12/21 07:06:23;;;;;;;18.67;17.20;;;4.40;99.90;;;;;;5090056;28;20688;-87
2020/12/21 07:08:52;;;;;;;19.10;17.50;;;4.50;99.90;;;;;;5083582;28;20660;-87
2020/12/21 07:11:21;;;;;;;16.80;15.40;;;4.70;99.90;;;;;;5084278;28;20624;-88
2020/12/21 07:13:49;;;;;;;19.73;18.13;;;4.70;99.90;;;;;;5088392;28;21193;-88
2020/12/21 07:16:21;;;;;;;17.80;16.30;;;4.70;99.90;;;;;;5082798;28;20974;-89
2020/12/21 07:18:48;;;;;;;17.63;16.23;;;4.60;99.90;;;;;;5090280;28;20658;-87
2020/12/21 07:21:15;;;;;;;19.13;17.60;;;4.50;99.90;;;;;;5087716;28;21050;-89
2020/12/21 07:23:44;;;;;;;21.77;19.63;;;4.50;99.90;;;;;;5086848;28;20642;-88
2020/12/21 07:26:15;;;;;;;18.83;17.20;;;4.40;99.90;;;;;;5086697;28;20636;-88
2020/12/21 07:28:45;;;;;;;20.03;18.03;;;4.50;99.90;;;;;;5086822;28;20621;-87
2020/12/21 07:31:13;;;;;;;17.97;16.37;;;4.50;99.90;;;;;;5084897;28;20596;-87
2020/12/21 07:34:00;;;;;;;19.10;17.40;;;4.50;99.90;;;;;;5084457;28;21170;-88
2020/12/21 07:36:28;;;;;;;20.70;18.57;;;4.50;99.90;;;;;;5086593;28;20634;-88
2020/12/21 07:39:06;;;;;;;20.10;18.00;;;4.50;99.90;;;;;;5084926;28;20626;-88
2020/12/21 07:41:35;;;;;;;19.57;17.70;;;4.40;99.90;;;;;;5080486;28;20668;-87
2020/12/21 07:44:06;;;;;;;19.33;17.53;;;4.40;99.90;;;;;;5084002;28;21055;-86
2020/12/21 07:46:42;;;;;;;16.53;15.00;;;4.40;99.90;;;;;;5084685;28;20671;-88
2020/12/21 07:49:11;;;;;;;17.83;16.30;;;4.40;99.90;;;;;;5084080;28;20633;-88
2020/12/21 07:51:42;;;;;;;16.50;15.00;;;4.40;99.90;;;;;;5086273;28;20675;-87
2020/12/21 07:54:12;;;;;;;16.37;14.97;;;4.50;99.90;;;;;;5088350;28;20618;-87
2020/12/21 07:56:38;;;;;;;16.10;14.80;;;4.50;99.90;;;;;;5087571;28;20624;-88
2020/12/21 07:59:16;;;;;;;18.53;16.97;;;4.50;99.90;;;;;;5082339;28;20681;-87
2020/12/21 08:01:43;;;;;;;16.87;15.10;;;4.50;99.90;;;;;;5081307;28;20650;-87
2020/12/21 08:04:17;;;;;;;16.53;15.13;;;4.60;99.90;;;;;;5089319;28;20676;-87
2020/12/21 08:06:45;;;;;;;16.63;15.30;;;4.60;99.90;;;;;;5082980;28;20632;-87
2020/12/21 08:09:12;;;;;;;16.87;15.07;;;4.60;99.90;;;;;;5086812;28;20731;-87
2020/12/21 08:11:43;;;;;;;16.67;15.37;;;4.60;99.90;;;;;;5087129;28;21067;-88
2020/12/21 08:14:16;;;;;;;16.17;14.70;;;4.60;99.90;;;;;;5092059;28;20616;-87
2020/12/21 08:16:42;;;;;;;18.37;16.77;;;4.60;99.90;;;;;;5086825;28;21127;-88
2020/12/21 08:19:13;;;;;;;17.00;15.50;;;4.60;99.90;;;;;;5085309;28;20979;-88
2020/12/21 08:21:42;;;;;;;17.43;15.83;;;4.50;99.90;;;;;;5081784;28;21278;-89
2020/12/21 08:24:10;;;;;;;15.60;14.50;;;4.60;99.90;;;;;;5086212;28;20626;-87
2020/12/21 08:26:38;;;;;;;17.07;15.10;;;4.60;99.90;;;;;;5091574;28;20624;-88
2020/12/21 08:29:05;;;;;;;16.57;15.17;;;4.60;99.90;;;;;;5088089;28;20747;-87
2020/12/21 08:31:31;;;;;;;16.80;15.27;;;4.60;99.90;;;;;;5081751;28;20621;-88
2020/12/21 08:34:00;;;;;;;18.80;17.20;;;4.80;99.90;;;;;;5078078;28;20642;-88
2020/12/21 08:36:29;;;;;;;15.83;14.53;;;4.90;99.90;;;;;;5080719;28;20624;-87
2020/12/21 08:39:05;;;;;;;17.37;14.90;;;4.90;99.90;;;;;;5087831;28;20634;-86
2020/12/21 08:41:36;;;;;;;15.30;14.07;;;4.90;99.90;;;;;;5080735;28;21116;-87
2020/12/21 08:44:06;;;;;;;16.43;15.03;;;4.90;99.90;;;;;;5090773;28;21185;-87
2020/12/21 08:46:33;;;;;;;16.13;14.43;;;5.00;99.90;;;;;;5080144;28;20637;-86
2020/12/21 08:48:59;;;;;;;16.30;14.90;;;5.00;99.90;;;;;;5085049;28;21206;-87
2020/12/21 08:51:25;;;;;;;15.77;14.47;;;5.00;99.90;;;;;;5086723;28;20661;-89
2020/12/21 08:53:57;;;;;;;16.50;15.07;;;5.10;99.90;;;;;;5084397;28;20811;-87
2020/12/21 08:56:24;;;;;;;14.50;13.30;;;5.20;99.90;;;;;;5087891;28;20629;-88
2020/12/21 08:58:50;;;;;;;15.57;14.27;;;5.20;99.90;;;;;;5096224;28;20647;-86
2020/12/21 09:01:17;;;;;;;15.90;14.60;;;5.30;99.90;;;;;;5089535;28;20701;-88
2020/12/21 09:03:46;;;;;;;15.00;13.70;;;5.20;99.90;;;;;;5090425;28;20798;-87
2020/12/21 09:06:17;;;;;;;17.50;15.90;;;5.30;99.90;;;;;;5090369;28;20615;-88
2020/12/21 09:08:43;;;;;;;18.57;16.77;;;5.40;99.90;;;;;;5088332;28;20624;-88
2020/12/21 09:11:09;;;;;;;16.40;15.10;;;5.40;99.90;;;;;;5088688;28;20616;-88
2020/12/21 09:13:36;;;;;;;15.63;14.17;;;5.40;99.90;;;;;;5092567;28;21270;-87
2020/12/21 09:16:03;;;;;;;15.60;14.33;;;5.40;99.90;;;;;;5086478;28;20625;-88
2020/12/21 09:18:30;;;;;;;14.57;13.17;;;5.40;99.90;;;;;;5095604;28;20631;-88
2020/12/21 09:20:56;;;;;;;14.90;13.60;;;5.40;99.90;;;;;;5092773;28;21296;-87
2020/12/21 09:23:23;;;;;;;15.07;13.87;;;5.40;99.90;;;;;;5084814;28;20641;-88
2020/12/21 09:25:54;;;;;;;15.53;14.23;;;5.50;99.90;;;;;;5088545;28;20628;-88
2020/12/21 09:28:20;;;;;;;15.60;14.03;;;5.60;99.90;;;;;;5089661;28;20660;-87
2020/12/21 09:30:46;;;;;;;14.23;12.93;;;5.50;99.90;;;;;;5090737;28;20617;-89
2020/12/21 09:33:14;;;;;;;14.77;13.47;;;5.50;99.90;;;;;;5087979;28;20695;-88
2020/12/21 09:35:41;;;;;;;14.20;13.10;;;5.60;99.90;;;;;;5082747;28;20581;-89
2020/12/21 09:38:07;;;;;;;13.83;12.50;;;5.70;99.90;;;;;;5094880;28;21106;-88
2020/12/21 09:40:34;;;;;;;14.03;12.70;;;5.70;99.90;;;;;;5087029;28;20703;-88
2020/12/21 09:43:00;;;;;;;12.93;11.83;;;6.00;99.90;;;;;;5078814;28;20660;-88
2020/12/21 09:45:26;;;;;;;14.13;13.13;;;6.00;99.90;;;;;;5084016;28;20656;-88
2020/12/21 09:47:53;;;;;;;13.87;12.77;;;5.90;99.90;;;;;;5091295;28;20678;-88
2020/12/21 09:50:20;;;;;;;13.20;12.00;;;6.00;99.90;;;;;;5090130;28;20645;-88
2020/12/21 09:52:47;;;;;;;12.60;11.60;;;6.00;99.90;;;;;;5097684;28;20656;-89
2020/12/21 09:55:15;;;;;;;13.00;11.80;;;6.00;99.90;;;;;;5093307;28;20625;-87
2020/12/21 09:57:43;;;;;;;13.10;12.00;;;6.10;99.90;;;;;;5085534;28;20672;-88
2020/12/21 10:00:09;;;;;;;12.90;11.80;;;6.10;99.90;;;;;;5087175;28;20667;-88
2020/12/21 10:02:35;;;;;;;13.80;12.70;;;6.10;99.90;;;;;;5085415;28;20664;-87
2020/12/21 10:05:01;;;;;;;11.53;10.53;;;6.00;99.90;;;;;;5088511;28;20636;-88
2020/12/21 10:07:28;;;;;;;12.17;11.07;;;6.10;99.90;;;;;;5086860;28;21132;-88
2020/12/21 10:09:55;;;;;;;12.73;11.47;;;6.20;99.90;;;;;;5082674;28;20631;-88
2020/12/21 10:12:22;;;;;;;11.97;10.87;;;6.30;99.90;;;;;;5082985;28;20719;-87
2020/12/21 10:14:48;;;;;;;12.67;11.60;;;6.40;99.90;;;;;;5090368;28;20616;-87
2020/12/21 10:17:34;;;;;;;12.53;11.50;;;6.40;99.90;;;;;;5086918;28;20608;-88
2020/12/21 10:20:01;;;;;;;12.80;11.73;;;6.40;99.90;;;;;;5091193;28;20690;-87
2020/12/21 10:22:27;;;;;;;13.13;12.03;;;6.40;99.90;;;;;;5089351;28;20652;-87
2020/12/21 10:24:55;;;;;;;12.80;11.63;;;6.30;99.90;;;;;;5087925;28;20621;-88
2020/12/21 10:27:35;;;;;;;12.50;11.50;;;6.40;99.90;;;;;;5082307;28;20648;-88
2020/12/21 10:30:02;;;;;;;11.80;10.40;;;6.50;99.90;;;;;;5079788;28;20743;-87
2020/12/21 10:32:28;;;;;;;11.57;10.50;;;6.50;99.90;;;;;;5080923;28;20790;-87
2020/12/21 10:34:55;;;;;;;12.73;11.67;;;6.50;99.90;;;;;;5081297;28;20668;-87
2020/12/21 10:37:21;;;;;;;12.10;11.03;;;6.40;99.90;;;;;;5089458;28;20648;-87
2020/12/21 10:39:54;;;;;;;11.17;10.27;;;6.50;99.90;;;;;;5093832;28;20688;-87
2020/12/21 10:42:22;;;;;;;12.40;11.20;;;6.40;99.90;;;;;;5086068;28;20652;-89
2020/12/21 10:44:48;;;;;;;11.90;11.00;;;6.50;99.90;;;;;;5093951;28;21243;-88
2020/12/21 10:47:14;;;;;;;12.43;11.17;;;6.50;99.90;;;;;;5089615;28;20737;-88
2020/12/21 10:49:42;;;;;;;11.67;10.67;;;6.50;99.90;;;;;;5092285;28;20722;-88
2020/12/21 10:52:08;;;;;;;12.47;11.37;;;6.60;99.90;;;;;;5089804;28;20647;-87
2020/12/21 10:54:35;;;;;;;12.87;11.80;;;6.50;99.90;;;;;;5091108;28;21167;-88
2020/12/21 10:57:04;;;;;;;13.40;12.30;;;6.60;99.90;;;;;;5086026;28;20628;-87
2020/12/21 10:59:34;;;;;;;13.90;12.80;;;6.60;99.90;;;;;;5088761;28;20639;-88
2020/12/21 11:02:02;;;;;;;15.57;14.23;;;6.60;99.90;;;;;;5082721;28;20664;-88
2020/12/21 11:04:28;;;;;;;15.77;14.50;;;6.60;99.90;;;;;;5087538;28;20638;-88
2020/12/21 11:06:55;;;;;;;16.77;15.27;;;6.60;99.90;;;;;;5086116;28;21191;-87
2020/12/21 11:09:22;;;;;;;15.00;13.80;;;6.70;99.90;;;;;;5086590;28;21187;-88
2020/12/21 11:11:50;;;;;;;15.80;14.37;;;6.60;99.90;;;;;;5085851;28;20640;-88
2020/12/21 11:14:16;;;;;;;15.33;13.87;;;6.70;99.90;;;;;;5080982;28;20672;-87
2020/12/21 11:16:48;;;;;;;14.87;12.90;;;6.70;99.90;;;;;;5089857;28;20637;-86
2020/12/21 11:19:15;;;;;;;15.07;13.67;;;6.80;99.90;;;;;;5080510;28;20637;-87
2020/12/21 11:21:42;;;;;;;14.17;12.77;;;6.80;99.90;;;;;;5094777;28;20707;-87
2020/12/21 11:24:08;;;;;;;13.23;12.13;;;6.80;99.90;;;;;;5086324;28;20646;-87
2020/12/21 11:26:34;;;;;;;13.60;12.30;;;6.90;99.90;;;;;;5088468;28;20657;-88
2020/12/21 11:29:06;;;;;;;14.43;12.70;;;6.90;99.90;;;;;;5087296;28;20637;-87
2020/12/21 11:31:36;;;;;;;12.63;11.63;;;7.10;99.90;;;;;;5089013;28;20971;-88
2020/12/21 11:34:04;;;;;;;12.13;10.97;;;7.10;99.90;;;;;;5085768;28;20622;-87
2020/12/21 11:36:31;;;;;;;11.60;10.60;;;7.10;99.90;;;;;;5084395;28;21147;-88
2020/12/21 11:39:00;;;;;;;13.07;11.50;;;7.10;99.90;;;;;;5087651;28;20653;-88
2020/12/21 11:41:29;;;;;;;12.53;11.23;;;7.20;99.90;;;;;;5080064;28;20649;-87
2020/12/21 11:43:55;;;;;;;11.87;10.80;;;7.20;99.90;;;;;;5081423;28;20620;-86
2020/12/21 11:46:29;;;;;;;12.37;11.27;;;7.30;99.90;;;;;;5089409;28;20649;-88
2020/12/21 11:48:56;;;;;;;19.20;11.07;;;7.20;99.90;;;;;;5080156;28;20655;-87
2020/12/21 11:51:24;;;;;;;12.77;11.50;;;7.30;99.90;;;;;;5084028;28;20982;-87
2020/12/21 11:53:51;;;;;;;14.20;10.60;;;7.40;99.90;;;;;;5090896;28;20677;-86
2020/12/21 11:56:18;;;;;;;11.63;10.50;;;7.30;99.90;;;;;;5086856;28;20637;-85
2020/12/21 11:58:45;;;;;;;14.47;10.70;;;7.30;99.90;;;;;;5078922;27;20633;-87
2020/12/21 12:01:11;;;;;;;13.70;12.57;;;7.40;99.90;;;;;;5088847;28;20677;-86
2020/12/21 12:03:38;;;;;;;11.97;10.87;;;7.30;99.90;;;;;;5111169;28;20618;-86
2020/12/21 12:06:04;;;;;;;12.57;10.90;;;7.30;99.90;;;;;;5098434;28;20679;-88
2020/12/21 12:08:32;;;;;;;12.50;11.27;;;7.30;99.90;;;;;;5092859;28;20640;-88
2020/12/21 12:10:59;;;;;;;11.67;10.57;;;7.40;99.90;;;;;;5087408;28;20678;-87
2020/12/21 12:13:40;;;;;;;11.57;10.57;;;7.60;99.90;;;;;;5094553;28;21008;-88
2020/12/21 12:16:06;;;;;;;12.07;10.93;;;7.70;99.90;;;;;;5082952;28;20633;-87
2020/12/21 12:18:41;;;;;;;12.73;11.63;;;7.70;99.90;;;;;;5092199;28;20650;-87
2020/12/21 12:21:08;;;;;;;17.20;12.60;;;7.90;99.90;;;;;;5096822;28;20634;-87
2020/12/21 12:23:35;;;;;;;12.70;11.50;;;7.90;99.90;;;;;;5085215;28;20769;-86
2020/12/21 12:26:01;;;;;;;13.17;12.07;;;7.90;99.90;;;;;;5092189;28;20704;-87
2020/12/21 12:28:29;;;;;;;11.53;10.40;;;8.00;99.90;;;;;;5085661;28;20629;-86
2020/12/21 12:30:55;;;;;;;11.30;10.30;;;8.00;99.90;;;;;;5092559;28;20636;-86
2020/12/21 12:33:23;;;;;;;12.40;11.30;;;8.00;99.90;;;;;;5090835;28;20698;-87
2020/12/21 12:35:49;;;;;;;12.47;11.43;;;8.00;99.90;;;;;;5083931;28;20636;-87
2020/12/21 12:38:15;;;;;;;14.10;11.80;;;7.90;99.90;;;;;;5081192;28;20631;-87
2020/12/21 12:40:42;;;;;;;12.53;10.77;;;8.00;99.90;;;;;;5083243;28;21286;-87